Terminal Aerodrome Forecast
Issued by NWS

Home | Current Version | Previous Version | Text Only | Print | Product List | Glossary On
Versions: 1 2 3 4 5 6 7 8 9 10 11 12 13 14 15
000
FTUS42 KMLB 190500
TAFISM
TAF
KISM 190525Z 1906/2006 00000KT P6SM BKN250
     FM191500 03004KT P6SM BKN250
     FM191800 09005KT P6SM BKN250
      AMD NOT SKED 1906/1912=

USA.gov is the U.S. government's official web portal to all federal, state and local government web resources and services.